Tiempo atmosférico en la estación meteorológica de Tortosa, Tarragona (44 m.)



Fecha
DESCASC
Temp. máxima en grados centígrados (hora)
DESCASC
Temp. mínima en grados centígrados (hora)
DESCASC
Temp. media en grados centígrados
DESCASC
Racha de viento máxima en m/sg (hora)
DESCASC
Velocidad máxima media en intervalos de 10 minutos(hora)
DESCASC
Precipitaciones diarias en mm
DESCASC
Precipitaciones de 00:00 a 06:00 en mm
DESCASC
Precipitaciones de 06:00 a 12:00 en mm
DESCASC
Precipitaciones de 12:00 a 18:00 en mm
DESCASC
Precipitaciones de 18:00 a 24:00 en mm
DESCASC
10-11-2019 15.6 (00:00) 9.5 (00:00) 12.6 19.72 (09:10) 10 (03:00) 1 1 0 0 0
09-11-2019 18.4 (13:40) 11.7 (00:00) 15 17.22 (03:50) 8.89 (22:50) 0 0 0 0 0
08-11-2019 17.2 (14:00) 10.7 (07:40) 14 21.39 (17:20) 10.28 (17:20) 0 0 0 0 0
07-11-2019 19.8 (14:00) 8 (00:00) 13.9 11.67 (15:40) 6.11 (13:50) 0 0 0 0 0
06-11-2019 19.9 (13:30) 11.2 (00:00) 15.5 22.78 (06:20) 12.78 (06:20) 0 0 0 0 0
05-11-2019 20.2 (14:10) 14.1 (00:00) 17.2 17.22 (12:40) 9.17 (12:10) 0 0 0 0 0
04-11-2019 27 (13:00) 15.2 (00:00) 21.1 11.11 (01:40) 5.28 (23:00) 0 0 0 0 0
03-11-2019 20.8 (04:20) 14.8 (00:00) 17.8 22.5 (09:30) 11.11 (09:40) 0.8 0 0.8 0 0
02-11-2019 28.3 (13:50) 17.4 (00:00) 22.8 13.33 (04:30) 5.56 (04:20) 0.2 0 0 0.2 0
01-11-2019 27.4 (14:30) 14.8 (00:00) 21.1 10 (01:50) 5 (00:40) 0 0 0 0 0
31-10-2019 25.4 (13:00) 16.6 (02:50) 21 15 (14:20) 6.67 (13:50) 0 0 0 0 0
30-10-2019 27.8 (13:50) 14 (00:00) 20.9 6.94 (14:40) 3.89 (14:40) 0 0 0 0 0
29-10-2019 25.5 (14:10) 12.9 (00:00) 19.2 5 (15:30) 2.5 (17:40) 0 0 0 0 0
28-10-2019 20.4 (14:50) 12.8 (00:00) 16.6 3.33 (16:50) 1.94 (16:50) 0 0 0 0 0
27-10-2019 24.5 (14:10) 10.8 (00:00) 17.7 6.11 (15:00) 3.33 (14:50) 0 0 0 0 0
26-10-2019 25.3 (15:10) 10.7 (00:00) 18 5.56 (18:10) 3.06 (17:00) 0 0 0 0 0
25-10-2019 26.1 (15:40) 14.2 (00:00) 20.2 11.39 (00:40) 6.11 (00:40) 0 0 0 0 0
24-10-2019 20.4 (15:40) 11.7 (00:00) 16 12.78 (15:50) 7.22 (15:50) 0 0 0 0 0
23-10-2019 21.3 (15:50) 11 (00:00) 16.1 14.17 (00:50) 6.94 (01:00) 5.8 5.8 0 0 0
22-10-2019 15.3 (01:20) 10.9 (14:50) 13.1 13.06 (14:40) 6.67 (14:40) 75 0.2 16.6 42.2 16
21-10-2019 23.1 (15:30) 12.9 (00:00) 18 8.89 (12:20) 4.72 (12:30) 0 0 0 0 0
20-10-2019 20 (00:00) 13.9 (00:00) 16.9 8.06 (13:30) 3.33 (23:20) 1.4 0 0 1.4 0
19-10-2019 28.3 (14:40) 13 (00:00) 20.6 9.17 (19:50) 6.11 (20:20) 0 0 0 0 0
18-10-2019 28.5 (14:50) 13.3 (00:00) 20.9 6.11 (07:30) 3.33 (15:40) 0 0 0 0 0
17-10-2019 29.2 (15:10) 11.3 (00:00) 20.3 8.33 (15:40) 3.61 (15:30) 0 0 0 0 0
16-10-2019 26.7 (14:30) 11.3 (00:00) 19 7.5 (15:50) 3.89 (16:00) 0 0 0 0 0
15-10-2019 24 (16:50) 13.4 (00:00) 18.7 19.72 (07:20) 8.06 (07:00) 0 0 0 0 0
14-10-2019 25.7 (13:30) 19.2 (00:00) 22.5 9.44 (23:59) 5 (11:20) 0.6 0 0 0.4 0.2

Gráficas

Temp. máximas Temp. mínimas Temp. medias Precipitaciones Rachas de viento máximas Velocidades máximas media en intervalos de 10 minutos

Datos horarios

Fecha y hora oficial Temperatura (ºC) Velocidad del viento (km/h) Dirección del viento Racha (km/h) Dirección de racha Precipitación (mm) Presión (hPa) Tendencia (hPa) Humedad (%)
2019-11-12 23:00:00 13.7 9 Noroeste 21 Noroeste 0 1002.9 -0.8 48
2019-11-12 22:00:00 13.6 6 Noroeste 21 Noroeste 0 1003.5 -0.1 49
2019-11-12 21:00:00 13.6 9 Norte 28 Noroeste 0 1003.5 -0.1 50
2019-11-12 20:00:00 14.2 11 Noroeste 34 Oeste 0 1003.7 0.3 48
2019-11-12 19:00:00 14.6 13 Noroeste 37 Noroeste 0 1003.6 0.2 47
2019-11-12 18:00:00 15 16 Noroeste 33 Oeste 0 1003.6 -0.2 45
2019-11-12 17:00:00 16 12 Noroeste 37 Noroeste 0 1003.4 -1 43
2019-11-12 16:00:00 15.6 10 Noroeste 46 Oeste 0 1003.4 -1 44
2019-11-12 15:00:00 17 22 Noroeste 56 Oeste 0 1003.8 -2 40
2019-11-12 14:00:00 17.3 18 Noroeste 54 Noroeste 0 1004.4 -1.9 41
2019-11-12 13:00:00 16.4 28 Noroeste 69 Noroeste 0 1004.4 -2.4 42
2019-11-12 12:00:00 16 25 Noroeste 67 Noroeste 0 1005.8 -1.5 46
2019-11-12 11:00:00 15.1 26 Noroeste 58 Norte 0 1006.3 -0.8 47
2019-11-12 10:00:00 13.8 24 Noroeste 58 Noroeste 0 1006.8 -0.2 50
2019-11-12 09:00:00 13 15 Norte 42 Norte 0 1007.3 0.4 53
2019-11-12 08:00:00 10.9 17 Norte 45 Norte 0 1007.1 0.2 59
2019-11-12 07:00:00 11.1 20 Norte 48 Norte 0 1007 0.6 57
2019-11-12 06:00:00 11.2 18 Norte 50 Norte 0 1006.9 0.3 53
2019-11-12 05:00:00 11.1 21 Norte 53 Nordeste 0 1006.9 -0.4 54
2019-11-12 04:00:00 11.2 19 Norte 57 Noroeste 0 1006.4 -1.3 54
2019-11-12 03:00:00 11.2 19 Norte 49 Norte 0 1006.6 -1.3 55
2019-11-12 02:00:00 11.4 21 Norte 61 Norte 0 1007.3 -0.6 54
2019-11-12 01:00:00 11.5 13 Norte 46 Norte 0 1007.7 0.2 54
2019-11-12 00:00:00 11.7 17 Norte 46 Norte 0 1007.9 0.8 53
2019-11-11 23:00:00 12.2 18 Norte 60 Noroeste 0 1007.9 1.9 52
2019-11-11 22:00:00 12.6 24 Noroeste 57 Norte 0 1007.5 1.8 50
2019-11-11 21:00:00 13 23 Noroeste 70 Noroeste 0 1007.1 1.3 49
2019-11-11 20:00:00 13.4 36 Noroeste 71 Noroeste 0 1006 0.2 53
2019-11-11 19:00:00 13.9 27 Noroeste 59 Noroeste 0 1005.7 -0.5 56
2019-11-11 18:00:00 14.7 22 Noroeste 51 Norte 0 1005.8 0 56
2019-11-11 17:00:00 15 23 Norte 61 Noroeste 0 1005.8 0 54
2019-11-11 16:00:00 15.4 17 Noroeste 46 Norte 0 1006.2 -0.1 49
2019-11-11 15:00:00 16.1 22 Noroeste 43 Noroeste 0 1005.8 -1.5 44
2019-11-11 14:00:00 16.9 20 Norte 43 Norte 0 1005.8 -2.1 42
2019-11-11 13:00:00 16.6 13 Noroeste 36 Noroeste 0 1006.3 -1.5 43
2019-11-11 12:00:00 16.8 13 Noroeste 36 Noroeste 0 1007.3 -0.5 39
2019-11-11 11:00:00 15.3 10 Noroeste 36 Noroeste 0 1007.9 0.2 43
2019-11-11 10:00:00 12.6 17 Noroeste 43 Norte 0 1007.8 -0.1 51
2019-11-11 09:00:00 11.8 18 Norte 48 Norte 0 1007.8 -0.3 53
2019-11-11 08:00:00 11.1 15 Norte 46 Noroeste 0 1007.7 -1 54
2019-11-11 07:00:00 10.8 15 Noroeste 41 Norte 0 1007.9 -1.1 54
2019-11-11 06:00:00 10.5 18 Norte 41 Norte 0 1008.1 -0.9 54
2019-11-11 05:00:00 10.3 18 Norte 40 Norte 0 1008.7 -0.6 54
2019-11-11 04:00:00 10 18 Norte 44 Norte 0 1009 -0.3 56
2019-11-11 03:00:00 9.7 14 Norte 51 Oeste 0 1009 0.6 58
2019-11-11 02:00:00 9.6 19 Norte 50 Noroeste 0 1009.3 0.8 57
2019-11-11 01:00:00 9.7 22 Noroeste 52 Noroeste 0 1009.3 1.3 56
2019-11-11 00:00:00 9.6 22 Norte 58 Noroeste 0 1008.4 0.4 57
2019-11-10 23:00:00 9.7 24 Norte 59 Norte 0 1008.5 0.2 55
2019-11-10 22:00:00 9.6 18 Norte 41 Norte 0 1008 0.3 56
2019-11-10 21:00:00 10 15 Norte 40 Norte 0 1008 1.9 57
2019-11-10 20:00:00 10.5 14 Norte 37 Norte 0 1008.3 2.9 57
2019-11-10 19:00:00 10.7 14 Norte 37 Norte 0 1007.7 2.6 56
2019-11-10 18:00:00 11.4 14 Noroeste 45 Noroeste 0 1006.1 1.4 53
2019-11-10 17:00:00 12.2 17 Noroeste 45 Noroeste 0 1005.4 0.7 51
2019-11-10 16:00:00 12.5 18 Noroeste 53 Noroeste 0 1005.1 0.3 51
2019-11-10 15:00:00 12.6 20 Noroeste 55 Oeste 0 1004.7 -1.1 50
2019-11-10 14:00:00 14.7 26 Noroeste 62 Noroeste 0 1004.7 -1 44
2019-11-10 13:00:00 14.8 28 Noroeste 58 Noroeste 0 1004.8 -0.7 44
2019-11-10 12:00:00 14.1 19 Noroeste 62 Noroeste 0 1005.8 0.8 46
2019-11-10 11:00:00 12.9 30 Noroeste 60 Noroeste 0 1005.7 0.4 48
2019-11-10 10:00:00 11.8 29 Noroeste 71 Noroeste 0 1005.5 0 52
2019-11-10 09:00:00 10.7 28 Noroeste 69 Noroeste 0 1005 -0.4 55
2019-11-10 08:00:00 10.1 21 Noroeste 57 Noroeste 0 1005.3 0.3 59
2019-11-10 07:00:00 10.2 14 Noroeste 59 Noroeste 0 1005.5 0.4 58
2019-11-10 06:00:00 10.5 17 Noroeste 66 Noroeste 0 1005.4 0.9 58
2019-11-10 05:00:00 11 32 Noroeste 66 Noroeste 0 1005 -1 58
2019-11-10 04:00:00 11.1 22 Noroeste 69 Noroeste 0 1005.1 -1.3 60
2019-11-10 03:00:00 11.2 36 Oeste 60 Noroeste 0 1004.5 -1.6 62
2019-11-10 02:00:00 10 24 Noroeste 58 Noroeste 1 1006 -0.4 74
2019-11-10 01:00:00 14.5 21 Noroeste 48 Noroeste 0 1006.4 0 60
2019-11-10 00:00:00 15.6 20 Oeste 43 Oeste 0 1006.1 -1.2 47
2019-11-09 23:00:00 15.9 30 Noroeste 56 Noroeste 0 1006.4 -1.8 46
2019-11-09 22:00:00 15.9 25 Noroeste 46 Oeste 0 1006.4 -2.3 46
2019-11-09 21:00:00 14.4 13 Noroeste 28 Noroeste 0 1007.3 -1.6 51
2019-11-09 20:00:00 13.3 6 Norte 10 Norte 0 1008.2 -1 54
2019-11-09 19:00:00 14.1 5 Norte 16 Oeste 0 1008.7 -0.7 50
2019-11-09 18:00:00 14.9 5 Noroeste 10 Noroeste 0 1008.9 -1 45
2019-11-09 17:00:00 16.5 4 Noroeste 33 Oeste 0 1009.2 -1.1 40
2019-11-09 16:00:00 17.7 6 Oeste 19 Noroeste 0 1009.4 -1.3 39
2019-11-09 15:00:00 16.3 8 Noroeste 33 Noroeste 0 1009.9 -1.5 43
2019-11-09 14:00:00 17.4 8 Noroeste 32 Noroeste 0 1010.3 -1.5 40
2019-11-09 13:00:00 17.9 14 Noroeste 38 Noroeste 0 1010.7 -1.3 40
2019-11-09 12:00:00 17.3 18 Noroeste 42 Oeste 0 1011.4 -1 39
2019-11-09 11:00:00 16.3 10 Noroeste 40 Noroeste 0 1011.8 -0.1 43
2019-11-09 10:00:00 14.9 18 Noroeste 43 Noroeste 0 1012 0.4 46
2019-11-09 09:00:00 13.3 10 Noroeste 50 Noroeste 0 1012.4 1.8 50
2019-11-09 08:00:00 12 8 Noroeste 46 Noroeste 0 1011.9 1.8 51
2019-11-09 07:00:00 11.9 15 Noroeste 59 Noroeste 0 1011.6 1.8 51
2019-11-09 06:00:00 12 18 Noroeste 57 Noroeste 0 1010.6 1.1 48
2019-11-09 05:00:00 12.1 22 Noroeste 50 Noroeste 0 1010.1 0.6 48
2019-11-09 04:00:00 12.4 24 Noroeste 62 Noroeste 0 1009.8 0.6 48
2019-11-09 03:00:00 12.4 15 Noroeste 55 Oeste 0 1009.5 0 48
2019-11-09 02:00:00 12.7 26 Noroeste 56 Oeste 0 1009.5 0.2 50
2019-11-09 01:00:00 12.6 23 Noroeste 56 Oeste 0 1009.2 -0.1 51
2019-11-09 00:00:00 12.3 29 Noroeste 72 Noroeste 0 1009.5 0.5 54
2019-11-08 23:00:00 12.1 31 Noroeste 61 Noroeste 0 1009.3 1 56
2019-11-08 22:00:00 11.5 30 Noroeste 75 Oeste 0 1009.3 1.3 61
2019-11-08 21:00:00 11.7 29 Noroeste 71 Noroeste 0 1009 2.1 59
2019-11-08 20:00:00 11.6 28 Noroeste 75 Noroeste 0 1008.3 2.8 60
2019-11-08 19:00:00 11 20 Noroeste 54 Noroeste 0 1008 3.3 67
2019-11-08 18:00:00 11.9 24 Noroeste 77 Noroeste 0 1006.9 2.7 59
2019-11-08 17:00:00 13.9 21 Noroeste 73 Noroeste 0 1005.5 1.2 45
2019-11-08 16:00:00 16.3 21 Noroeste 46 Noroeste 0 1004.7 0 33
2019-11-08 15:00:00 16.3 13 Noroeste 46 Oeste 0 1004.2 -0.8 34
2019-11-08 14:00:00 16.8 10 Noroeste 37 Oeste 0 1004.3 -0.8 34
2019-11-08 13:00:00 16.3 13 Noroeste 43 Oeste 0 1004.7 -0.6 36
2019-11-08 12:00:00 15.9 17 Noroeste 50 Norte 0 1005 0 38
2019-11-08 11:00:00 14.8 12 Oeste 31 Noroeste 0 1005.1 0.5 38
2019-11-08 10:00:00 12.3 17 Oeste 42 Noroeste 0 1005.3 1.3 43
2019-11-08 09:00:00 11.1 14 Noroeste 44 Noroeste 0 1005 1.2 43
2019-11-08 08:00:00 11 17 Noroeste 37 Noroeste 0 1004.6 1.5 43
2019-11-08 07:00:00 11.1 19 Noroeste 54 Noroeste 0 1004 0.7 41
2019-11-08 06:00:00 11 23 Noroeste 58 Oeste 0 1003.8 0.5 40
2019-11-08 05:00:00 11.1 24 Noroeste 54 Noroeste 0 1003.1 -0.5 41
2019-11-08 04:00:00 11.2 17 Noroeste 42 Oeste 0 1003.3 0 44
2019-11-08 03:00:00 11.5 8 Noroeste 28 Norte 0 1003.3 -0.2 46
2019-11-08 02:00:00 12.1 6 Norte 33 Norte 0 1003.6 0.6 48
2019-11-08 01:00:00 12.5 8 Norte 36 Norte 0 1003.3 -0.4 47
2019-11-08 00:00:00 12.7 13 Norte 42 Norte 0 1003.5 0.1 46
2019-11-07 23:00:00 11.9 9 Norte 23 Noroeste 0 1003 -0.1 54
2019-11-07 22:00:00 12.4 13 Noroeste 32 Noroeste 0 1003.7 0.7 53
2019-11-07 21:00:00 11.8 8 Norte 26 Noroeste 0 1003.4 0.5 63
2019-11-07 20:00:00 12 11 Norte 20 Norte 0 1003.1 0.1 61
2019-11-07 19:00:00 12.8 8 Norte 20 Norte 0 1003 -0.2 59
2019-11-07 18:00:00 13.9 14 Noroeste 34 Norte 0 1002.9 0.4 54
2019-11-07 17:00:00 15.5 8 Norte 28 Norte 0 1003 0.5 53
2019-11-07 16:00:00 15.7 12 Noroeste 42 Norte 0 1003.2 0.2 54
2019-11-07 15:00:00 16.9 17 Noroeste 40 Noroeste 0 1002.5 -1 50
2019-11-07 14:00:00 19.7 18 Noroeste 41 Oeste 0 1002.5 -0.9 44
2019-11-07 13:00:00 17.6 14 Noroeste 35 Oeste 0 1003 -0.5 53
2019-11-07 12:00:00 16 8 Noroeste 17 Noroeste 0 1003.5 -0.1 60
2019-11-07 11:00:00 14.6 4 Norte 12 Norte 0 1003.4 0 63
2019-11-07 10:00:00 11.5 5 Norte 11 Noroeste 0 1003.5 0.5 76
2019-11-07 09:00:00 9.3 3 Norte 10 Noroeste 0 1003.6 0.3 79
2019-11-07 08:00:00 8.3 2 Oeste 12 Oeste 0 1003.4 -0.4 82
2019-11-07 07:00:00 8.6 3 Nordeste 11 Noroeste 0 1003 -1.5 79
2019-11-07 06:00:00 8.6 4 Norte 8 Norte 0 1003.3 -1.9 79
2019-11-07 05:00:00 9.1 6 Noroeste 13 Noroeste 0 1003.8 -1.8 77
2019-11-07 04:00:00 8.9 7 Norte 10 Nordeste 0 1004.5 -1.6 76
2019-11-07 03:00:00 9 4 Noroeste 10 Oeste 0 1005.2 -1.1 76
2019-11-07 02:00:00 9.8 5 Norte 11 Noroeste 0 1005.6 -1.1 72
2019-11-07 01:00:00 10.1 5 Sudeste 10 Sudeste 0 1006.1 -1.1 70
2019-11-07 00:00:00 11.2 3 Sudeste 12 Sur 0 1006.3 -0.7 67
2019-11-06 23:00:00 12.9 6 Noroeste 11 Sudoeste 0 1006.7 -0.4 58
2019-11-06 22:00:00 13.5 5 Este 14 Nordeste 0 1007.2 0.6 56
2019-11-06 21:00:00 15.1 8 Oeste 22 Noroeste 0 1007 0.5 48
2019-11-06 20:00:00 14.8 11 Norte 23 Noroeste 0 1007.1 0.7 50
2019-11-06 19:00:00 15.7 8 Norte 25 Norte 0 1006.6 0.3 45
2019-11-06 18:00:00 16.6 13 Noroeste 33 Noroeste 0 1006.5 0.2 42
2019-11-06 17:00:00 17.5 17 Noroeste 48 Noroeste 0 1006.4 0.1 39
2019-11-06 16:00:00 17.7 21 Noroeste 44 Noroeste 0 1006.3 0.2 39
2019-11-06 15:00:00 18.9 20 Noroeste 48 Noroeste 0 1006.3 -0.2 37
2019-11-06 14:00:00 18.7 18 Noroeste 47 Noroeste 0 1006.3 0.1 40
2019-11-06 13:00:00 19.1 19 Noroeste 67 Noroeste 0 1006.1 -0.5 40
2019-11-06 12:00:00 18.1 29 Noroeste 81 Noroeste 0 1006.5 0.6 41
2019-11-06 11:00:00 17.5 28 Noroeste 57 Noroeste 0 1006.2 1.5 42
2019-11-06 10:00:00 16.6 23 Noroeste 63 Noroeste 0 1006.6 2.8 42
2019-11-06 09:00:00 15.4 28 Noroeste 63 Noroeste 0 1005.9 3.1 46
2019-11-06 08:00:00 14.6 18 Noroeste 64 Noroeste 0 1004.7 0.8 49
2019-11-06 07:00:00 14.7 31 Noroeste 82 Noroeste 0 1003.8 0.3 50
2019-11-06 06:00:00 14.6 35 Noroeste 81 Noroeste 0 1002.8 -1.2 49
2019-11-06 05:00:00 14.6 29 Noroeste 77 Noroeste 0 1003.9 -0.4 49
2019-11-06 04:00:00 14.7 33 Noroeste 77 Noroeste 0 1003.5 -1 49
2019-11-06 03:00:00 14.3 23 Noroeste 64 Noroeste 0 1004 -1 50
2019-11-06 02:00:00 14.3 20 Noroeste 63 Noroeste 0 1004.3 -0.5 51
2019-11-06 01:00:00 14.5 27 Noroeste 52 Noroeste 0 1004.5 0 50
2019-11-06 00:00:00 14.1 14 Noroeste 46 Norte 0 1005 1 53
2019-11-05 23:00:00 14.9 14 Noroeste 57 Noroeste 0 1004.8 1.1 49
2019-11-05 22:00:00 14.8 12 Noroeste 40 Noroeste 0 1004.5 1.5 51
2019-11-05 21:00:00 15.1 11 Noroeste 36 Nordeste 0 1004 2.3 52
2019-11-05 20:00:00 15.3 13 Norte 34 Noroeste 0 1003.7 2.7 53
2019-11-05 19:00:00 15.4 7 Norte 46 Oeste 0 1003 2.1 53
2019-11-05 18:00:00 16.5 10 Noroeste 40 Noroeste 0 1001.7 0.8 45
2019-11-05 17:00:00 18.5 8 Norte 27 Noroeste 0 1001 0.3 41
2019-11-05 16:00:00 19 12 Noroeste 48 Oeste 0 1000.9 0.2 36
2019-11-05 15:00:00 18.8 16 Oeste 50 Oeste 0 1000.9 -0.6 36
2019-11-05 14:00:00 19.9 21 Oeste 55 Oeste 0 1000.7 -0.9 34
2019-11-05 13:00:00 19.3 29 Oeste 62 Oeste 0 1000.7 -0.6 34
2019-11-05 12:00:00 19.2 26 Noroeste 56 Oeste 0 1001.5 0.3 36
2019-11-05 11:00:00 18.6 15 Noroeste 51 Oeste 0 1001.6 1.5 36
2019-11-05 10:00:00 18.2 15 Noroeste 45 Noroeste 0 1001.3 1.3 38
2019-11-05 09:00:00 16.4 8 Noroeste 46 Noroeste 0 1001.2 1.3 41
2019-11-05 08:00:00 14.8 13 Norte 37 Noroeste 0 1000.1 0.9 47
2019-11-05 07:00:00 14.6 11 Noroeste 33 Noroeste 0 1000 1 49
2019-11-05 06:00:00 14.9 13 Norte 42 Noroeste 0 999.9 1 49
2019-11-05 05:00:00 16 19 Noroeste 39 Oeste 0 999.2 -0.3 44
2019-11-05 04:00:00 16.4 11 Noroeste 34 Oeste 0 999 -0.8 47
2019-11-05 03:00:00 16.6 5 Nordeste 15 Norte 0 998.9 -1.1 55
2019-11-05 02:00:00 16.6 5 Nordeste 17 Nordeste 0 999.5 0.5 58
2019-11-05 01:00:00 16.1 8 Nordeste 21 Norte 0 999.8 1.4 66
2019-11-05 00:00:00 17.2 12 Noroeste 38 Noroeste 0 1000 1.5 66
2019-11-04 23:00:00 18.8 19 Norte 37 Noroeste 0 999 0.7 61
2019-11-04 22:00:00 19.7 8 Sudoeste 14 Sudoeste 0 998.4 0.7 44
2019-11-04 21:00:00 20.5 12 Sudoeste 24 Sudoeste 0 998.5 0.6 41
2019-11-04 20:00:00 20.9 8 Sudoeste 15 Sur 0 998.3 0.1 41
2019-11-04 19:00:00 22.1 10 Sur 28 Sudoeste 0 997.7 -0.9 36
2019-11-04 18:00:00 23 8 Sudoeste 17 Sudoeste 0 997.9 -1 36
2019-11-04 17:00:00 25.3 5 Sudoeste 21 Noroeste 0 998.2 -1.2 34
2019-11-04 16:00:00 24.3 14 Oeste 26 Oeste 0 998.6 -1.7 35
2019-11-04 15:00:00 25.8 4 Sudeste 18 Sur 0 998.9 -2.4 40
2019-11-04 14:00:00 24.4 6 Sur 24 Sur 0 999.4 -2.7 42
2019-11-04 13:00:00 27 14 Sur 27 Sur 0 1000.3 -2.1 33
2019-11-04 12:00:00 24.6 5 Sudeste 17 Sur 0 1001.3 -1.3 38
2019-11-04 11:00:00 24.8 8 Sur 17 Sur 0 1002.1 -0.2 39
2019-11-04 10:00:00 23.4 5 Sur 36 Noroeste 0 1002.4 0.6 40
2019-11-04 09:00:00 21.2 17 Oeste 38 Sudoeste 0 1002.6 0.6 45
2019-11-04 08:00:00 18.3 12 Noroeste 26 Noroeste 0 1002.3 0.6 55
2019-11-04 07:00:00 15.5 5 Noroeste 14 Sudoeste 0 1001.8 -0.2 56
2019-11-04 06:00:00 15.9 8 Nordeste 14 Sudeste 0 1002 -0.4 57
2019-11-04 05:00:00 16.3 7 Noroeste 15 Noroeste 0 1001.7 -0.6 54
2019-11-04 04:00:00 16.1 6 Nordeste 13 Este 0 1002 -0.5 51
2019-11-04 03:00:00 17.3 9 Sur 30 Sudoeste 0 1002.4 -0.2 45
2019-11-04 02:00:00 19.1 10 Sur 40 Sudoeste 0 1002.3 -0.2 39
2019-11-04 01:00:00 18.6 9 Norte 27 Noroeste 0 1002.5 -0.1 43
2019-11-04 00:00:00 18.5 14 Noroeste 33 Noroeste 0 1002.6 0.2 39
2019-11-03 23:00:00 18.2 11 Norte 37 Norte 0 1002.5 0.4 40
2019-11-03 22:00:00 17.6 10 Nordeste 32 Norte 0 1002.6 1.4 43
2019-11-03 21:00:00 16.7 10 Norte 37 Nordeste 0 1002.4 2.6 45
2019-11-03 20:00:00 17.3 13 Norte 31 Norte 0 1002.1 3 43
2019-11-03 19:00:00 17.7 13 Norte 37 Noroeste 0 1001.2 3.5 42
2019-11-03 18:00:00 18.4 17 Noroeste 43 Norte 0 999.8 3.4 40
2019-11-03 17:00:00 19.7 15 Noroeste 45 Norte 0 999.1 2.9 36
2019-11-03 16:00:00 20.5 19 Norte 52 Norte 0 997.7 2.5 37
2019-11-03 15:00:00 20.8 21 Norte 56 Norte 0 996.4 0.7 38
2019-11-03 14:00:00 20.4 23 Noroeste 65 Noroeste 0 996.2 0.6 39
2019-11-03 13:00:00 19.8 23 Norte 68 Noroeste 0 995.2 0.7 44
2019-11-03 12:00:00 18.3 22 Noroeste 76 Noroeste 0 995.7 4.7 48
2019-11-03 11:00:00 17.1 30 Noroeste 68 Oeste 0 995.6 4.9 50
2019-11-03 10:00:00 14.9 24 Noroeste 81 Noroeste 0.8 994.5 3 72
2019-11-03 09:00:00 18.3 13 Sur 33 Sudoeste 0 991 -0.9 55
2019-11-03 08:00:00 17.4 7 Sur 22 Sur 0 990.7 -1.8 56
2019-11-03 07:00:00 17.9 14 Sur 32 Sur 0 991.5 -1.4 53
2019-11-03 06:00:00 19.6 6 Sudoeste 17 Noroeste 0 991.9 -2.1 46
2019-11-03 05:00:00 20.6 6 Oeste 27 Sudoeste 0 992.5 -2 44
2019-11-03 04:00:00 20.4 10 Sudoeste 25 Oeste 0 992.9 -2.4 42
2019-11-03 03:00:00 19.8 9 Oeste 21 Sudoeste 0 994 -1.9 50
2019-11-03 02:00:00 17.4 6 Sudeste 14 Este 0 994.5 -2.2 77
2019-11-03 01:00:00 17.1 6 Norte 13 Norte 0 995.3 -2 82
2019-11-03 00:00:00 17.4 2 Sur 8 Este 0 995.9 -2 83
2019-11-02 23:00:00 18 5 Este 10 Oeste 0 996.7 -1.6 78
2019-11-02 22:00:00 18.2 7 Noroeste 12 Norte 0 997.3 -1.2 78
2019-11-02 21:00:00 18.3 4 Sudeste 13 Norte 0 997.9 -0.5 78
2019-11-02 20:00:00 18.8 4 Noroeste 9 Sur 0 998.3 -0.2 81
2019-11-02 19:00:00 20.4 4 Noroeste 15 Noroeste 0 998.5 -0.3 69
2019-11-02 18:00:00 20.9 6 Nordeste 14 Nordeste 0.2 998.4 -1 72
2019-11-02 17:00:00 23.2 5 Sur 13 Sudoeste 0 998.5 -2 64
2019-11-02 16:00:00 24.5 5 Sudoeste 15 Sur 0 998.8 -2.5 54
2019-11-02 15:00:00 25.8 10 Sudeste 22 Sudeste 0 999.4 -2.8 50
2019-11-02 14:00:00 27.2 12 Sudeste 20 Sudeste 0 1000.5 -2.5 45
2019-11-02 13:00:00 27.6 7 Sudeste 13 Sur 0 1001.3 -2.3 42
2019-11-02 12:00:00 27.1 5 Sudeste 14 Sur 0 1002.2 -1.7 38
2019-11-02 11:00:00 25.8 8 Sudeste 17 Sudeste 0 1003 -0.8 50
2019-11-02 10:00:00 23.7 5 Norte 12 Noroeste 0 1003.6 -0.2 52
2019-11-02 09:00:00 20.6 4 Norte 17 Noroeste 0 1003.9 0.2 65
2019-11-02 08:00:00 18.9 10 Norte 16 Norte 0 1003.8 -0.1 68
2019-11-02 07:00:00 20.5 9 Norte 29 Noroeste 0 1003.8 -0.3 61
2019-11-02 06:00:00 22.2 17 Noroeste 40 Noroeste 0 1003.7 -0.9 51
2019-11-02 05:00:00 22.5 18 Noroeste 48 Noroeste 0 1003.9 -1.2 50
2019-11-02 04:00:00 22.3 13 Noroeste 37 Noroeste 0 1004.1 -1.7 53
2019-11-02 03:00:00 22.8 16 Noroeste 35 Oeste 0 1004.6 -1.5 50
2019-11-02 02:00:00 22.3 11 Oeste 40 Oeste 0 1005.1 -1.7 54
2019-11-02 01:00:00 18.7 7 Sudeste 15 Oeste 0 1005.8 -1.4 82
2019-11-02 00:00:00 18.2 5 Sudeste 14 Sur 0 1006.1 -1.6 87
2019-11-01 23:00:00 18.7 5 Norte 13 Norte 0 1006.8 -1.4 87
2019-11-01 22:00:00 19.1 6 Sur 13 Sur 0 1007.2 -1.4 86
2019-11-01 21:00:00 19.4 7 Noroeste 13 Norte 0 1007.7 -0.8 82
2019-11-01 20:00:00 19.5 6 Norte 9 Noroeste 0 1008.2 -0.7 85
2019-11-01 19:00:00 20.2 5 Sudoeste 8 Sudeste 0 1008.6 -0.3 82
2019-11-01 18:00:00 21.2 5 Sur 8 Sur 0 1008.5 -0.6 77
2019-11-01 17:00:00 23.1 5 Sur 15 Sur 0 1008.9 -1.2 70
2019-11-01 16:00:00 24.8 9 Sudeste 18 Sudeste 0 1008.9 -2.1 64
2019-11-01 15:00:00 26.7 8 Sudeste 14 Sudeste 0 1009.1 -3.1 52
2019-11-01 14:00:00 26.4 8 Sur 15 Sudeste 0 1010.1 -2.8 51
2019-11-01 13:00:00 25.2 4 Sudeste 8 Este 0 1011 -2.3 51
2019-11-01 12:00:00 22.6 3 Nordeste 9 Noroeste 0 1012.2 -1.3 57
2019-11-01 11:00:00 20.8 6 Noroeste 9 Nordeste 0 1012.9 -0.4 64
2019-11-01 10:00:00 20.1 4 Nordeste 11 Noroeste 0 1013.3 0.3 63
2019-11-01 09:00:00 16.6 2 Noroeste 8 Noroeste 0 1013.5 0.3 79
2019-11-01 08:00:00 15 4 Norte 7 Sudeste 0 1013.3 0 83
2019-11-01 07:00:00 15 4 Sur 7 Sudoeste 0 1013 -0.6 80
2019-11-01 06:00:00 15.3 4 Sur 8 Sur 0 1013.2 -0.6 78
2019-11-01 05:00:00 15.7 2 Sudeste 10 Sudoeste 0 1013.3 -0.3 74
2019-11-01 04:00:00 17 8 Oeste 14 Oeste 0 1013.6 -0.9 66
2019-11-01 03:00:00 17.4 5 Sudoeste 23 Noroeste 0 1013.8 -0.6 64
2019-11-01 02:00:00 19.7 13 Noroeste 36 Norte 0 1013.6 -1.6 57
2019-11-01 01:00:00 20.1 15 Noroeste 36 Noroeste 0 1014.5 -1 55
2019-11-01 00:00:00 20 17 Noroeste 37 Noroeste 0 1014.4 -0.8 54
2019-10-31 23:00:00 18.9 9 Noroeste 22 Noroeste 0 1015.2 0.3 58
2019-10-31 22:00:00 19.9 8 Noroeste 30 Noroeste 0 1015.5 1 54
2019-10-31 21:00:00 20.3 13 Noroeste 30 Noroeste 0 1015.2 1.2 54
2019-10-31 20:00:00 20.7 6 Noroeste 18 Noroeste 0 1014.9 1.5 52
2019-10-31 19:00:00 21.6 8 Noroeste 44 Noroeste 0 1014.5 1 49
2019-10-31 18:00:00 22.4 14 Noroeste 45 Noroeste 0 1014 0.9 46
2019-10-31 17:00:00 23.5 15 Noroeste 37 Norte 0 1013.4 0.3 44
2019-10-31 16:00:00 24.6 15 Noroeste 43 Noroeste 0 1013.5 -0.3 44
2019-10-31 15:00:00 25.1 16 Noroeste 54 Noroeste 0 1013.1 -1.1 46
2019-10-31 14:00:00 25.1 19 Noroeste 48 Noroeste 0 1013.1 -1.3 44
2019-10-31 13:00:00 25.3 15 Noroeste 41 Noroeste 0 1013.8 -0.6 46
2019-10-31 12:00:00 24.2 15 Noroeste 47 Noroeste 0 1014.2 0 49
2019-10-31 11:00:00 23.3 14 Noroeste 45 Noroeste 0 1014.4 0.4 53
2019-10-31 10:00:00 21.5 15 Noroeste 47 Oeste 0 1014.4 0.8 61
2019-10-31 09:00:00 20.8 13 Noroeste 41 Oeste 0 1014.2 0.8 64
2019-10-31 08:00:00 19 7 Norte 17 Norte 0 1014 0.5 71
2019-10-31 07:00:00 19.1 8 Nordeste 17 Norte 0 1013.6 0.1 68
2019-10-31 06:00:00 18.3 6 Nordeste 11 Nordeste 0 1013.4 -0.5 73
2019-10-31 05:00:00 18.4 6 Norte 18 Noroeste 0 1013.5 -0.6 70
2019-10-31 04:00:00 16.9 3 Sudeste 9 Nordeste 0 1013.5 -1.1 85
2019-10-31 03:00:00 16.6 7 Nordeste 12 Sudeste 0 1013.9 -1 87
2019-10-31 02:00:00 16.8 6 Noroeste 10 Norte 0 1014.1 -1 85
2019-10-31 01:00:00 16.9 3 Nordeste 13 Noroeste 0 1014.6 -0.5 85
2019-10-31 00:00:00 17 5 Noroeste 11 Norte 0 1014.9 0 85
2019-10-30 23:00:00 17.3 3 Noroeste 9 Noroeste 0 1015.1 0.3 85
2019-10-30 22:00:00 17.7 3 Nordeste 9 Noroeste 0 1015.1 0.4 83
2019-10-30 21:00:00 17.9 3 Noroeste 9 Noroeste 0 1014.9 0.4 82
2019-10-30 20:00:00 18.8 3 Noroeste 8 Sudeste 0 1014.8 0.3 79
2019-10-30 19:00:00 19.8 4 Sudeste 8 Sudeste 0 1014.7 0.5 75
2019-10-30 18:00:00 20.9 4 Este 15 Sudeste 0 1014.5 0.3 65
2019-10-30 17:00:00 22.9 8 Sur 17 Sur 0 1014.5 0.3 60
2019-10-30 16:00:00 24.5 9 Sudeste 18 Sudeste 0 1014.2 -0.7 61
2019-10-30 15:00:00 25.5 10 Sudeste 25 Sudeste 0 1014.2 -1.3 57
2019-10-30 14:00:00 27.6 6 Sudeste 15 Sudeste 0 1014.2 -1.5 49
2019-10-30 13:00:00 27 4 Oeste 21 Nordeste 0 1014.9 -0.9 43
2019-10-30 12:00:00 25.3 6 Nordeste 22 Norte 0 1015.5 -0.2 49
2019-10-30 11:00:00 23.1 10 Norte 20 Nordeste 0 1015.7 0.7 55
2019-10-30 10:00:00 21.3 6 Norte 15 Norte 0 1015.8 1.3 69
2019-10-30 09:00:00 17.3 0 Calma 9 Noroeste 0 1015.7 1.4 82
2019-10-30 08:00:00 14.9 7 Noroeste 13 Noroeste 0 1015 0.7 86
2019-10-30 07:00:00 14.8 3 Noroeste 16 Norte 0 1014.5 0.3 89
2019-10-30 06:00:00 15.2 4 Norte 18 Norte 0 1014.3 -0.2 84
2019-10-30 05:00:00 15.7 10 Norte 19 Norte 0 1014.3 0.3 82
2019-10-30 04:00:00 15 11 Norte 18 Norte 0 1014.2 0 86
2019-10-30 03:00:00 14.1 6 Noroeste 12 Norte 0 1014.5 0.3 92
2019-10-30 02:00:00 14.1 3 Noroeste 12 Norte 0 1014 -0.2 93
2019-10-30 01:00:00 14.5 4 Noroeste 9 Norte 0 1014.2 0.4 92
2019-10-30 00:00:00 14.9 5 Norte 16 Norte 0 1014.2 0.6 91
2019-10-29 23:00:00 15.2 4 Norte 13 Noroeste 0 1014.2 1 91
2019-10-29 22:00:00 15.8 7 Norte 12 Noroeste 0 1013.8 1.3 89
2019-10-29 21:00:00 16.2 8 Norte 11 Norte 0 1013.6 1.5 90
2019-10-29 20:00:00 17.4 6 Norte 8 Noroeste 0 1013.2 1.5 87
2019-10-29 19:00:00 18.8 4 Sur 13 Sur 0 1012.5 1.1 80
2019-10-29 18:00:00 20.3 9 Sudoeste 14 Sudoeste 0 1012.1 1 75
2019-10-29 17:00:00 23.1 7 Sur 15 Sur 0 1011.7 0.4 66
2019-10-29 16:00:00 24.5 8 Sudeste 18 Sudeste 0 1011.4 -0.4 59
2019-10-29 15:00:00 25.4 3 Este 9 Noroeste 0 1011.1 -1.2 48
2019-10-29 14:00:00 25.4 4 Norte 11 Nordeste 0 1011.3 -1.2 48
2019-10-29 13:00:00 24 4 Nordeste 12 Norte 0 1011.8 -0.6 52
2019-10-29 12:00:00 21.9 5 Norte 12 Noroeste 0 1012.3 0.4 61
2019-10-29 11:00:00 19.4 2 Este 6 Este 0 1012.5 1.3 75
2019-10-29 10:00:00 17.5 2 Nordeste 7 Noroeste 0 1012.4 1.6 85
2019-10-29 09:00:00 14.9 3 Sur 6 Sur 0 1011.9 1.5 94
2019-10-29 08:00:00 13.2 4 Norte 10 Norte 0 1011.2 0.6 98
2019-10-29 07:00:00 13.3 5 Noroeste 15 Norte 0 1010.8 -0.1 98
2019-10-29 06:00:00 13.3 6 Norte 13 Norte 0 1010.4 -0.6 98
2019-10-29 05:00:00 13.6 7 Norte 14 Norte 0 1010.6 -0.7 98
2019-10-29 04:00:00 13.5 4 Noroeste 7 Noroeste 0 1010.9 -0.5 97
2019-10-29 03:00:00 13.7 6 Noroeste 8 Norte 0 1011 -0.6 95
2019-10-29 02:00:00 14.5 4 Norte 10 Norte 0 1011.3 -0.3 95
2019-10-29 01:00:00 15.2 8 Noroeste 12 Noroeste 0 1011.4 -0.2 93
2019-10-29 00:00:00 16.2 6 Norte 11 Noroeste 0 1011.6 0.1 93
2019-10-28 23:00:00 17.1 0 Calma 4 Sur 0 1011.6 -0.1 92
2019-10-28 22:00:00 17.6 0 Calma 2 Este 0 1011.6 0 92
2019-10-28 21:00:00 17.8 0 Calma 5 Sudoeste 0 1011.5 0.1 91
2019-10-28 20:00:00 17.9 3 Oeste 5 Sur 0 1011.7 0.2 90
2019-10-28 19:00:00 18 5 Sur 9 Sudoeste 0 1011.6 -0.2 89
2019-10-28 18:00:00 18.8 5 Sudoeste 12 Sur 0 1011.4 -0.7 86
2019-10-28 17:00:00 19.3 7 Sur 12 Sur 0 1011.5 -1 84
2019-10-28 16:00:00 19.8 3 Oeste 6 Sudoeste 0 1011.8 -1.4 78
2019-10-28 15:00:00 20.2 4 Sur 7 Sudeste 0 1012.1 -1.8 77
2019-10-28 14:00:00 19.6 4 Sudeste 7 Sudeste 0 1012.5 -1.4 78
2019-10-28 13:00:00 19 3 Sudoeste 6 Sudoeste 0 1013.2 -0.8 79
2019-10-28 12:00:00 18.1 3 Este 6 Este 0 1013.9 0.2 82
2019-10-28 11:00:00 16.4 2 Norte 6 Este 0 1013.9 0.5 91
2019-10-28 10:00:00 15.3 0 Calma 8 Oeste 0 1014 0.7 95
2019-10-28 09:00:00 14 0 Calma 4 Norte 0 1013.7 0.5 98
2019-10-28 08:00:00 13.3 0 Calma 8 Noroeste 0 1013.4 -0.1 98
2019-10-28 07:00:00 13 2 Nordeste 7 Noroeste 0 1013.3 -0.7 97
2019-10-28 06:00:00 12.9 3 Noroeste 6 Norte 0 1013.2 -1.1 97
2019-10-28 05:00:00 13 4 Nordeste 6 Noroeste 0 1013.5 -1.4 97
2019-10-28 04:00:00 12.9 2 Nordeste 5 Noroeste 0 1014 -1 97
2019-10-28 03:00:00 12.9 0 Calma 8 Noroeste 0 1014.3 -1.2 96
2019-10-28 02:00:00 13.3 5 Norte 7 Nordeste 0 1014.9 -0.9 95
2019-10-28 01:00:00 14.1 4 Norte 9 Norte 0 1015 -1.1 96
2019-10-28 00:00:00 14.2 6 Noroeste 8 Norte 0 1015.5 -0.3 95
2019-10-27 23:00:00 14.8 2 Nordeste 4 Noroeste 0 1015.8 -0.1 93
2019-10-27 22:00:00 15.7 2 Este 7 Oeste 0 1016.1 0.5 90
2019-10-27 21:00:00 16.1 4 Sudoeste 9 Sur 0 1015.8 0.6 90
2019-10-27 20:00:00 16.6 6 Sur 10 Sur 0 1015.9 0.5 87
2019-10-27 19:00:00 17.8 6 Sudeste 14 Sudeste 0 1015.6 0.2 78
2019-10-27 18:00:00 19.3 10 Sudeste 14 Sudeste 0 1015.2 -0.5 73
2019-10-27 17:00:00 21 7 Sur 17 Sur 0 1015.4 -0.5 66
2019-10-27 16:00:00 23 9 Sudeste 19 Sudeste 0 1015.4 -1.1 62
2019-10-27 15:00:00 23.4 11 Sudeste 22 Sudeste 0 1015.7 -1.5 59
2019-10-27 14:00:00 24.4 9 Sur 17 Sudeste 0 1015.9 -1.6 56
2019-10-27 13:00:00 23.6 7 Sudeste 17 Sudeste 0 1016.5 -1.4 59
2019-10-27 12:00:00 22.6 6 Sur 13 Sudeste 0 1017.2 -0.5 62
2019-10-27 11:00:00 20.3 3 Este 7 Este 0 1017.5 0.2 69
2019-10-27 10:00:00 16.8 3 Noroeste 7 Noroeste 0 1017.9 1 80
2019-10-27 09:00:00 13.9 3 Norte 10 Norte 0 1017.7 0.8 94
2019-10-27 08:00:00 11.6 4 Norte 9 Norte 0 1017.3 0.4 99
2019-10-27 07:00:00 11.5 4 Nordeste 8 Noroeste 0 1016.9 -0.1 98
2019-10-27 06:00:00 11 5 Norte 10 Noroeste 0 1016.9 -0.3 98
2019-10-27 05:00:00 11 6 Noroeste 10 Noroeste 0 1016.9 -0.4 98
2019-10-27 04:00:00 11.3 4 Nordeste 7 Noroeste 0 1017 -0.4 97
2019-10-27 03:00:00 11.8 4 Norte 10 Oeste 0 1017.2 -0.5 96
2019-10-27 02:00:00 12.3 4 Norte 8 Noroeste 0 1017.3 -0.5 96
2019-10-27 01:00:00 13.6 2 Norte 8 Noroeste 0 1017.7 0.2 94
2019-10-27 00:00:00 14.3 5 Noroeste 8 Noroeste 0 1017.8 0.8 94
2019-10-26 23:00:00 15.4 4 Nordeste 6 Nordeste 0 1017.8 1.3 92
2019-10-26 22:00:00 16.5 5 Sudoeste 8 Sudoeste 0 1017.5 1.5 90
2019-10-26 21:00:00 16.8 6 Sur 11 Sur 0 1017 1.5 90
2019-10-26 20:00:00 17.9 5 Sur 12 Sur 0 1016.5 1 84
2019-10-26 19:00:00 19.3 8 Sudeste 20 Sur 0 1016 0.3 80
2019-10-26 18:00:00 22.2 9 Sudeste 19 Sudeste 0 1015.5 -0.6 61
2019-10-26 17:00:00 24.1 11 Sudeste 18 Sur 0 1015.5 -1.4 51
2019-10-26 16:00:00 24.7 9 Sur 18 Sudoeste 0 1015.7 -2 49
2019-10-26 15:00:00 25.2 9 Sur 16 Sur 0 1016.1 -1.9 51
2019-10-26 14:00:00 24 5 Sur 13 Sur 0 1016.9 -0.8 55
2019-10-26 13:00:00 23 8 Sur 11 Sur 0 1017.7 0.2 64
2019-10-26 12:00:00 20.7 4 Sur 7 Norte 0 1018 0.9 68
2019-10-26 11:00:00 17.6 2 Nordeste 13 Noroeste 0 1017.7 0.8 75
2019-10-26 10:00:00 13.7 7 Norte 14 Norte 0 1017.5 0.8 91
2019-10-26 09:00:00 11 6 Norte 12 Norte 0 1017.1 0.4 97
2019-10-26 08:00:00 10.8 4 Norte 12 Noroeste 0 1016.9 0.3 96
2019-10-26 07:00:00 11 4 Norte 12 Norte 0 1016.7 0.1 95
2019-10-26 06:00:00 11.4 6 Norte 10 Norte 0 1016.7 0.1 95
2019-10-26 05:00:00 12 3 Nordeste 10 Noroeste 0 1016.6 -0.1 94
2019-10-26 04:00:00 12.2 6 Norte 12 Norte 0 1016.6 0 94
2019-10-26 03:00:00 12.7 6 Nordeste 15 Noroeste 0 1016.6 -0.2 93
2019-10-26 02:00:00 12.9 2 Sudoeste 8 Norte 0 1016.7 -0.1 94
2019-10-26 01:00:00 13.5 5 Norte 8 Norte 0 1016.6 0.1 92
2019-10-26 00:00:00 14.2 4 Norte 12 Noroeste 0 1016.8 0.4 90
2019-10-25 23:00:00 14.8 5 Noroeste 9 Norte 0 1016.8 0.8 88
2019-10-25 22:00:00 15.9 8 Noroeste 9 Noroeste 0 1016.5 0.8 84
2019-10-25 21:00:00 17.2 5 Sudeste 10 Sudeste 0 1016.4 1 79
2019-10-25 20:00:00 18.7 6 Sudeste 13 Sudeste 0 1016 0.8 72
2019-10-25 19:00:00 20.8 8 Sudeste 16 Sur 0 1015.7 0.3 64
2019-10-25 18:00:00 23.9 11 Sur 18 Sur 0 1015.4 -0.7 51
2019-10-25 17:00:00 25.2 8 Sur 18 Sudeste 0 1015.2 -1.7 47
2019-10-25 16:00:00 25.5 8 Sudeste 17 Sudeste 0 1015.4 -2.1 43
2019-10-25 15:00:00 25.7 8 Sur 15 Sudoeste 0 1016.1 -1.4 41
2019-10-25 14:00:00 25.2 9 Sudeste 18 Sudeste 0 1016.9 -0.4 42
2019-10-25 13:00:00 24.6 5 Este 13 Sur 0 1017.5 0.3 41
2019-10-25 12:00:00 23.6 7 Sur 13 Sur 0 1017.5 1.1 47
2019-10-25 11:00:00 21.3 4 Sur 11 Sur 0 1017.3 2 52
2019-10-25 10:00:00 18.7 3 Sur 18 Oeste 0 1017.2 1.3 60
2019-10-25 09:00:00 16.8 9 Oeste 26 Norte 0 1016.4 0.4 61
2019-10-25 08:00:00 15.9 13 Norte 22 Norte 0 1015.3 -0.3 65
2019-10-25 07:00:00 16.4 10 Norte 26 Noroeste 0 1015.9 0 63
2019-10-25 06:00:00 16.3 8 Norte 23 Noroeste 0 1016 -0.1 62
2019-10-25 05:00:00 16.3 9 Norte 26 Norte 0 1015.6 -0.7 63
2019-10-25 04:00:00 16.4 12 Norte 23 Norte 0 1015.9 0.4 63
2019-10-25 03:00:00 16.5 9 Noroeste 17 Norte 0 1016.1 0.6 61
2019-10-25 02:00:00 17.9 15 Noroeste 40 Noroeste 0 1016.3 0.8 56
2019-10-25 01:00:00 17.7 15 Noroeste 41 Norte 0 1015.5 0.5 54
2019-10-25 00:00:00 18.3 21 Noroeste 42 Noroeste 0 1015.5 1.4 53
2019-10-24 23:00:00 16.6 13 Norte 29 Norte 0 1015.5 2.1 59
2019-10-24 22:00:00 16.7 11 Norte 31 Norte 0 1015 2.3 58
2019-10-24 21:00:00 16.3 12 Norte 28 Nordeste 0 1014.1 1.9 59
2019-10-24 20:00:00 16.7 7 Norte 19 Norte 0 1013.4 1.3 57
2019-10-24 19:00:00 18.3 4 Norte 25 Oeste 0 1012.7 1 49
2019-10-24 18:00:00 20.3 6 Sudoeste 30 Noroeste 0 1012.2 1.1 44
2019-10-24 17:00:00 19.3 13 Noroeste 35 Oeste 0 1012.1 0.4 45
2019-10-24 16:00:00 19.5 24 Noroeste 46 Noroeste 0 1011.7 -0.1 47
2019-10-24 15:00:00 19.3 20 Noroeste 41 Noroeste 0 1011.1 -0.4 48
2019-10-24 14:00:00 19.2 17 Noroeste 41 Noroeste 0 1011.7 0.9 50
2019-10-24 13:00:00 18.6 19 Noroeste 37 Noroeste 0 1011.8 1.7 53
2019-10-24 12:00:00 18.6 17 Noroeste 33 Oeste 0 1011.5 2.3 51
2019-10-24 11:00:00 18.2 8 Noroeste 20 Norte 0 1010.8 2.7 55
2019-10-24 10:00:00 15.5 11 Norte 28 Norte 0 1010.1 2.8 67
2019-10-24 09:00:00 13.1 12 Norte 34 Norte 0 1009.2 2.4 71
2019-10-24 08:00:00 11.7 11 Norte 21 Norte 0 1008.1 1.6 74
2019-10-24 07:00:00 12.1 10 Norte 21 Norte 0 1007.3 1.5 74
2019-10-24 06:00:00 11.9 10 Norte 20 Nordeste 0 1006.8 1.2 77
2019-10-24 05:00:00 12.1 9 Norte 19 Norte 0 1006.5 1.5 75
2019-10-24 04:00:00 11.7 8 Norte 18 Norte 0 1005.8 0.9 82
2019-10-24 03:00:00 12.2 11 Norte 21 Norte 0 1005.6 0.6 84
2019-10-24 02:00:00 12.5 9 Norte 19 Norte 0 1005 0.3 84
2019-10-24 01:00:00 12.5 12 Norte 21 Norte 0 1004.9 1.1 88
2019-10-24 00:00:00 12.1 7 Norte 16 Noroeste 0 1005 1.8 91
2019-10-23 23:00:00 12.2 7 Norte 13 Noroeste 0 1004.7 1.9 92
2019-10-23 22:00:00 13 6 Norte 9 Noroeste 0 1003.8 1.4 92
2019-10-23 21:00:00 14.2 5 Sudoeste 10 Sudoeste 0 1003.2 1.2 84
2019-10-23 20:00:00 15.2 7 Noroeste 10 Noroeste 0 1002.8 1.2 80
2019-10-23 19:00:00 16.5 5 Este 14 Sudeste 0 1002.4 1.1 72
2019-10-23 18:00:00 17.5 8 Sudeste 21 Sudeste 0 1002 0.5 67
2019-10-23 17:00:00 19.2 10 Sur 25 Sur 0 1001.6 0.1 62
2019-10-23 16:00:00 20.9 6 Sur 19 Este 0 1001.3 -0.6 52
2019-10-23 15:00:00 20.5 9 Este 21 Este 0 1001.5 -0.6 52
2019-10-23 14:00:00 20.6 9 Sudeste 18 Sudeste 0 1001.5 -0.3 59
2019-10-23 13:00:00 19.5 5 Sudeste 14 Sudeste 0 1001.9 0.1 66
2019-10-23 12:00:00 18.1 4 Nordeste 12 Nordeste 0 1002.1 0.9 83
2019-10-23 11:00:00 14.2 8 Noroeste 12 Noroeste 0 1001.8 1 98
2019-10-23 10:00:00 12.8 5 Noroeste 14 Norte 0 1001.8 1.4 98
2019-10-23 09:00:00 11.5 6 Norte 12 Norte 0 1001.2 1.7 99
2019-10-23 08:00:00 11.4 3 Noroeste 8 Norte 0 1000.8 1.5 98
2019-10-23 07:00:00 12.1 3 Norte 11 Noroeste 0 1000.4 1.1 99
2019-10-23 06:00:00 12 8 Noroeste 17 Norte 0.2 999.5 -0.1 98
2019-10-23 05:00:00 12.2 5 Norte 14 Sudoeste 1.2 999.3 -0.5 98
2019-10-23 04:00:00 12 7 Oeste 18 Norte 0.2 999.3 0.4 98
2019-10-23 03:00:00 11.8 9 Norte 33 Norte 0 999.6 -2.4 98
2019-10-23 02:00:00 11.6 18 Norte 42 Noroeste 0.4 999.8 -3.3 98
2019-10-23 01:00:00 11.1 25 Norte 51 Norte 3.8 998.9 -4.7 98
2019-10-23 00:00:00 11.2 14 Norte 35 Norte 5.2 1002 0.8 98
2019-10-22 23:00:00 11.3 17 Norte 40 Noroeste 6 1003.1 1.4 97
2019-10-22 22:00:00 11.7 13 Noroeste 40 Noroeste 1.2 1003.6 1.7 96
2019-10-22 21:00:00 11.4 19 Norte 34 Norte 3.2 1001.2 -0.6 97
2019-10-22 20:00:00 12 19 Norte 38 Norte 0.2 1001.7 -0.8 91
2019-10-22 19:00:00 11.4 15 Nordeste 38 Norte 0.2 1001.9 -- 94
2019-10-22 18:00:00 11.6 13 Norte 31 Norte 0.4 1001.8 -- 97
2019-10-22 17:00:00 11.3 18 Norte 40 Norte 1.6 1002.5 -2.6 99
2019-10-22 16:00:00 11.1 21 Norte 45 Norte 6.4 -- -- 99
2019-10-22 15:00:00 11.1 17 Norte 47 Nordeste 15 -- -- 98
2019-10-22 14:00:00 11.3 18 Norte 33 Norte 14.4 1005.1 -2.2 98
2019-10-22 13:00:00 11.6 14 Norte 31 Norte 4.4 1005.9 -2.7 98
2019-10-22 12:00:00 12 14 Norte 32 Norte 8.6 1006.4 -2.6 97
2019-10-22 11:00:00 12.3 13 Norte 34 Norte 4.8 1007.3 -2.1 97
2019-10-22 10:00:00 12.3 13 Norte 28 Nordeste 1.2 1008.6 -1.6 96
2019-10-22 09:00:00 12.4 10 Norte 20 Norte 1.4 1009 -1.4 94
2019-10-22 08:00:00 12.8 9 Norte 17 Norte 0.4 1009.4 -2.3 91
2019-10-22 07:00:00 13.5 10 Norte 24 Noroeste 0.2 1010.2 -1.9 88
2019-10-22 06:00:00 14.1 12 Norte 21 Norte 0.2 1010.4 -2.4 83
2019-10-22 05:00:00 15.2 8 Norte 22 Noroeste 0 1011.7 -1.4 74
2019-10-22 04:00:00 15.1 9 Norte 19 Norte 0 1012.1 -1.6 72
2019-10-22 03:00:00 14.5 8 Norte 14 Norte 0 1012.8 -1.2 74
2019-10-22 02:00:00 15 7 Norte 13 Norte 0 1013.1 -0.3 71
2019-10-22 01:00:00 15.1 10 Norte 18 Noroeste 0 1013.7 0.3 71
2019-10-22 00:00:00 14.7 6 Norte 16 Norte 0 1014 0 74
2019-10-21 23:00:00 14.6 8 Norte 13 Noroeste 0 1013.4 0.1 74
2019-10-21 22:00:00 15.4 8 Noroeste 12 Noroeste 0 1013.4 0.4 70
2019-10-21 21:00:00 16.3 2 Noroeste 8 Noroeste 0 1014 1.2 67
2019-10-21 20:00:00 17.3 3 Sudeste 11 Sudeste 0 1013.3 0.8 63
2019-10-21 19:00:00 18.2 8 Sudeste 18 Sudeste 0 1013 0.6 59
2019-10-21 18:00:00 19.7 11 Sur 21 Sudeste 0 1012.8 0 53
2019-10-21 17:00:00 21.1 10 Sudeste 19 Este 0 1012.5 -0.7 44
2019-10-21 16:00:00 22.3 5 Noroeste 18 Norte 0 1012.4 -1.5 37
2019-10-21 15:00:00 22.4 9 Norte 28 Norte 0 1012.8 -1 39
2019-10-21 14:00:00 21.4 12 Norte 30 Norte 0 1013.2 -0.7 42
2019-10-21 13:00:00 19 14 Norte 32 Nordeste 0 1013.9 1 49
2019-10-21 12:00:00 17.1 13 Norte 28 Nordeste 0 1013.8 1.7 58
2019-10-21 11:00:00 14.7 11 Norte 27 Norte 0 1013.9 2.5 64
2019-10-21 10:00:00 13.6 13 Norte 27 Norte 0 1012.9 1.8 69
2019-10-21 09:00:00 13 11 Norte 28 Norte 0 1012.1 1.3 69
2019-10-21 08:00:00 13.3 12 Norte 25 Norte 0 1011.4 0.9 71
2019-10-21 07:00:00 13.2 10 Norte 26 Norte 0 1011.1 0.6 73
2019-10-21 06:00:00 13.4 12 Norte 22 Norte 0 1010.8 0.6 74
2019-10-21 05:00:00 13.2 10 Norte 24 Norte 0 1010.5 0.5 75
2019-10-21 04:00:00 13.4 11 Norte 24 Norte 0 1010.5 0.9 74
2019-10-21 03:00:00 13.6 12 Norte 22 Norte 0 1010.2 1 75
2019-10-21 02:00:00 13.7 9 Norte 19 Norte 0 1010 1.4 76
2019-10-21 01:00:00 13.9 10 Norte 21 Norte 0 1009.6 2 75
2019-10-21 00:00:00 14 8 Norte 26 Norte 0 1009.2 2.4 79
2019-10-20 23:00:00 13.9 9 Norte 17 Norte 0 1008.6 2.7 90
2019-10-20 22:00:00 14.4 4 Noroeste 11 Noroeste 0 1007.6 3.1 86
2019-10-20 21:00:00 15.4 4 Sudoeste 7 Norte 0 1006.8 2.8 86
2019-10-20 20:00:00 16.8 4 Norte 11 Norte 0 1005.9 2.9 80
2019-10-20 19:00:00 18 7 Norte 16 Norte 0 1004.5 0.8 72
2019-10-20 18:00:00 18.8 4 Norte 13 Norte 0 1004 0.3 77
2019-10-20 17:00:00 18.7 5 Noroeste 13 Oeste 0 1003 -0.2 79
2019-10-20 16:00:00 18.3 4 Noroeste 13 Nordeste 0 1003.7 0 84
2019-10-20 15:00:00 18.3 4 Sur 12 Sudeste 0 1003.7 1.4 78
2019-10-20 14:00:00 17.4 7 Oeste 29 Sudeste 0.8 1003.2 1.7 91
2019-10-20 13:00:00 18.2 6 Este 14 Nordeste 0.6 1003.7 1.6 87
2019-10-20 12:00:00 19.7 5 Norte 12 Noroeste 0 1002.3 2 74
2019-10-20 11:00:00 19 5 Noroeste 16 Norte 0 1001.5 1.5 77
2019-10-20 10:00:00 18.8 6 Sur 20 Sudeste 0 1002.1 2.4 80
2019-10-20 09:00:00 17.9 12 Sudeste 21 Sudeste 0 1000.3 0.6 89
2019-10-20 08:00:00 17.5 5 Sur 8 Sur 0 1000 0.3 88
2019-10-20 07:00:00 18.1 5 Oeste 13 Oeste 0 999.7 -0.5 85
2019-10-20 06:00:00 18.1 4 Sur 9 Este 0 999.7 -1.1 85
2019-10-20 05:00:00 18.2 3 Sudoeste 5 Sur 0 999.7 -1.8 84
2019-10-20 04:00:00 18.8 4 Sur 6 Sur 0 1000.2 -1.6 82
2019-10-20 03:00:00 19.3 3 Oeste 8 Sudoeste 0 1000.8 -1 82
2019-10-20 02:00:00 19.3 4 Norte 6 Este 0 1001.5 -0.3 82
2019-10-20 01:00:00 19.6 3 Sudeste 10 Sur 0 1001.8 -0.1 81
2019-10-20 00:00:00 20 9 Sur 25 Sur 0 1001.8 0.1 79
2019-10-19 23:00:00 19.4 11 Sudeste 16 Sudeste 0 1001.8 0.3 83
2019-10-19 22:00:00 20.5 9 Sur 28 Sur 0 1001.9 1.2 76
2019-10-19 21:00:00 21.2 14 Sur 32 Sudoeste 0 1001.7 1.2 72
2019-10-19 20:00:00 22.2 17 Sur 33 Sur 0 1001.5 0.7 70
2019-10-19 19:00:00 24.4 6 Noroeste 9 Nordeste 0 1000.7 -0.8 60
2019-10-19 18:00:00 25.8 7 Este 19 Este 0 1000.5 -1.6 55
2019-10-19 17:00:00 26.9 8 Sudeste 22 Sudeste 0 1000.8 -2.1 46
2019-10-19 16:00:00 27 14 Sudeste 26 Este 0 1001.5 -2.3 45
2019-10-19 15:00:00 26.4 11 Sudeste 21 Sudeste 0 1002.1 -2.6 54
2019-10-19 14:00:00 27.5 11 Sudeste 21 Sudeste 0 1002.9 -2.5 49
2019-10-19 13:00:00 26.7 6 Sur 14 Sudeste 0 1003.8 -1.7 48
2019-10-19 12:00:00 24.3 4 Nordeste 11 Este 0 1004.7 -0.7 53
2019-10-19 11:00:00 21.3 4 Nordeste 9 Nordeste 0 1005.4 0 67
2019-10-19 10:00:00 16.6 3 Norte 6 Norte 0 1005.5 -0.1 81
2019-10-19 09:00:00 14.1 6 Norte 12 Noroeste 0 1005.4 -0.1 90
2019-10-19 08:00:00 13.3 4 Norte 11 Noroeste 0 1005.4 -0.3 90
2019-10-19 07:00:00 13.6 4 Noroeste 9 Norte 0 1005.6 -0.7 87
2019-10-19 06:00:00 14 2 Nordeste 12 Noroeste 0 1005.5 -1.5 87
2019-10-19 05:00:00 14.5 5 Norte 7 Norte 0 1005.7 -1.8 85
2019-10-19 04:00:00 15.2 3 Oeste 12 Noroeste 0 1006.3 -1.3 83
2019-10-19 03:00:00 15.6 8 Norte 13 Norte 0 1007 -0.8 82
2019-10-19 02:00:00 16.7 3 Nordeste 8 Noroeste 0 1007.5 -0.6 80
2019-10-19 01:00:00 17.7 3 Norte 7 Noroeste 0 1007.6 -0.5 80
2019-10-19 00:00:00 18.3 2 Oeste 6 Noroeste 0 1007.8 -0.4 81
2019-10-18 23:00:00 19.5 4 Noroeste 9 Oeste 0 1008.1 0 80
2019-10-18 22:00:00 20.1 5 Sudeste 12 Sur 0 1008.1 0.1 77
2019-10-18 21:00:00 20.5 7 Sudoeste 10 Sur 0 1008.2 -0.1 67
2019-10-18 20:00:00 21.4 8 Sudeste 13 Sur 0 1008.1 -0.4 63
2019-10-18 19:00:00 23.6 8 Sudeste 17 Sudeste 0 1008 -0.8 42
2019-10-18 18:00:00 25.7 9 Sudeste 21 Sudeste 0 1008.3 -0.8 39
2019-10-18 17:00:00 27.2 10 Sudeste 20 Sudeste 0 1008.5 -1.6 41
2019-10-18 16:00:00 28 8 Sudeste 21 Sudeste 0 1008.8 -1.9 38
2019-10-18 15:00:00 28.1 11 Sudeste 20 Sudeste 0 1009.1 -2.1 37
2019-10-18 14:00:00 27.4 8 Sudeste 21 Sudeste 0 1010.1 -1.2 37
2019-10-18 13:00:00 25.9 8 Sudeste 15 Sudeste 0 1010.7 -0.7 44
2019-10-18 12:00:00 22.3 4 Sudeste 8 Sur 0 1011.2 0.2 53
2019-10-18 11:00:00 20.2 2 Noroeste 8 Nordeste 0 1011.3 0.9 57
2019-10-18 10:00:00 16.7 3 Norte 11 Norte 0 1011.4 0.7 67
2019-10-18 09:00:00 15.4 3 Este 10 Sudeste 0 1011 0.4 70
2019-10-18 08:00:00 15.2 3 Norte 22 Noroeste 0 1010.4 -0.4 68
2019-10-18 07:00:00 13.4 5 Este 8 Norte 0 1010.7 -0.3 79
2019-10-18 06:00:00 13.6 4 Noroeste 17 Norte 0 1010.6 -0.9 76
2019-10-18 05:00:00 13.7 11 Norte 18 Norte 0 1010.8 -0.9 75
2019-10-18 04:00:00 13.3 5 Norte 8 Noroeste 0 1011 -1 79
2019-10-18 03:00:00 14 3 Norte 8 Norte 0 1011.5 -0.7 74
2019-10-18 02:00:00 14.3 6 Norte 11 Noroeste 0 1011.7 -0.7 72
2019-10-18 01:00:00 15.2 6 Norte 9 Norte 0 1012 0 69
2019-10-18 00:00:00 16.4 4 Norte 9 Noroeste 0 1012.2 0.6 67
2019-10-17 23:00:00 17.3 4 Norte 9 Norte 0 1012.4 1.2 68
2019-10-17 22:00:00 18.1 6 Noroeste 9 Noroeste 0 1012 1.4 63
2019-10-17 21:00:00 19.6 4 Sudeste 9 Sudeste 0 1011.6 0.9 70
2019-10-17 20:00:00 21.1 5 Sudeste 10 Sudeste 0 1011.2 0.9 61
2019-10-17 19:00:00 22.8 5 Sudoeste 13 Sudoeste 0 1010.6 0.3 54
2019-10-17 18:00:00 23.3 4 Sur 15 Sudeste 0 1010.7 0.2 47
2019-10-17 17:00:00 24.7 8 Norte 26 Norte 0 1010.3 -0.8 28
2019-10-17 16:00:00 26.3 12 Norte 30 Norte 0 1010.3 -1.5 23
2019-10-17 15:00:00 29 10 Norte 28 Norte 0 1010.5 -1.6 20
2019-10-17 14:00:00 28.2 12 Norte 25 Norte 0 1011.1 -1.2 24
2019-10-17 13:00:00 26.7 10 Norte 22 Norte 0 1011.8 -0.1 25
2019-10-17 12:00:00 24.7 8 Norte 21 Norte 0 1012.1 0.4 29
2019-10-17 11:00:00 21.1 7 Norte 18 Norte 0 1012.3 0.9 45
2019-10-17 10:00:00 16.3 9 Norte 20 Norte 0 1011.9 0.4 61
2019-10-17 09:00:00 12.7 5 Norte 17 Norte 0 1011.7 0.4 73
2019-10-17 08:00:00 11.3 8 Norte 17 Norte 0 1011.4 -0.1 77
2019-10-17 07:00:00 11.3 7 Noroeste 11 Noroeste 0 1011.5 -0.2 79
2019-10-17 06:00:00 11.7 8 Norte 14 Norte 0 1011.3 -0.7 79
2019-10-17 05:00:00 11.9 5 Noroeste 12 Norte 0 1011.5 -0.6 80
2019-10-17 04:00:00 12.5 9 Norte 18 Norte 0 1011.7 -0.6 80
2019-10-17 03:00:00 12.9 5 Norte 11 Oeste 0 1012 -0.4 80
2019-10-17 02:00:00 12.9 7 Oeste 12 Oeste 0 1012.1 0 80
2019-10-17 01:00:00 13.7 3 Norte 13 Noroeste 0 1012.3 0.5 77
2019-10-17 00:00:00 14.7 6 Norte 10 Norte 0 1012.4 0.6 74
2019-10-16 23:00:00 15.9 6 Noroeste 9 Noroeste 0 1012.1 0.7 71
2019-10-16 22:00:00 17.2 6 Este 9 Sur 0 1011.8 0.6 69
2019-10-16 21:00:00 17.9 6 Sudeste 16 Sur 0 1011.8 0.5 67
2019-10-16 20:00:00 19.3 12 Sur 24 Sur 0 1011.4 -0.2 62
2019-10-16 19:00:00 21.1 10 Sur 21 Sur 0 1011.2 -0.9 50
2019-10-16 18:00:00 23.9 11 Sur 23 Sur 0 1011.3 -1 39
2019-10-16 17:00:00 23.4 12 Sudeste 22 Sudeste 0 1011.6 -1.2 40
2019-10-16 16:00:00 24.2 14 Sudeste 27 Sudeste 0 1012.1 -1.7 35
2019-10-16 15:00:00 26.3 5 Este 15 Este 0 1012.3 -2.3 23
2019-10-16 14:00:00 26 9 Este 18 Este 0 1012.8 -2.1 23
2019-10-16 13:00:00 25.8 9 Nordeste 18 Nordeste 0 1013.8 -1.2 25
2019-10-16 12:00:00 24.1 6 Nordeste 14 Norte 0 1014.6 -0.2 29
2019-10-16 11:00:00 20.2 4 Norte 19 Norte 0 1014.9 0.6 38
2019-10-16 10:00:00 16.8 8 Norte 17 Norte 0 1015 0.6 45
2019-10-16 09:00:00 11.9 3 Norte 17 Noroeste 0 1014.8 0.5 64
2019-10-16 08:00:00 11.9 5 Norte 17 Norte 0 1014.3 -0.3 59
2019-10-16 07:00:00 12 8 Noroeste 13 Noroeste 0 1014.4 -0.5 58
2019-10-16 06:00:00 11.7 3 Oeste 16 Norte 0 1014.3 -0.9 60
2019-10-16 05:00:00 11.9 7 Norte 12 Noroeste 0 1014.6 -0.7 57
2019-10-16 04:00:00 11.6 3 Nordeste 7 Sudoeste 0 1014.9 -0.5 59
2019-10-16 03:00:00 11.8 5 Sudoeste 15 Noroeste 0 1015.2 -0.2 56
2019-10-16 02:00:00 13.2 10 Norte 18 Norte 0 1015.3 -0.3 50
2019-10-16 01:00:00 13 10 Norte 17 Norte 0 1015.4 0.4 51
2019-10-16 00:00:00 13.4 8 Norte 13 Norte 0 1015.4 0.7 50
2019-10-15 23:00:00 14.8 2 Sur 10 Norte 0 1015.6 1.5 45
2019-10-15 22:00:00 16.2 5 Norte 9 Sur 0 1015 1.8 41
2019-10-15 21:00:00 17 4 Sur 14 Noroeste 0 1014.7 2 37
2019-10-15 20:00:00 19 7 Noroeste 14 Noroeste 0 1014.1 1.7 31
2019-10-15 19:00:00 20.8 11 Noroeste 22 Noroeste 0 1013.2 0.8 27
2019-10-15 18:00:00 22.8 10 Oeste 26 Noroeste 0 1012.7 0.2 25
2019-10-15 17:00:00 23.7 13 Noroeste 29 Noroeste 0 1012.4 -0.3 23
2019-10-15 16:00:00 23.4 14 Noroeste 36 Noroeste 0 1012.4 -0.5 24
2019-10-15 15:00:00 23.7 12 Noroeste 37 Noroeste 0 1012.5 -0.5 24
2019-10-15 14:00:00 22.7 14 Noroeste 57 Oeste 0 1012.7 0.4 27
2019-10-15 13:00:00 22.2 13 Norte 38 Noroeste 0 1012.9 1.2 28
2019-10-15 12:00:00 20.6 8 Sudoeste 42 Oeste 0 1013 1.9 31
2019-10-15 11:00:00 18.2 19 Oeste 47 Noroeste 0 1012.3 2.3 38
2019-10-15 10:00:00 16.9 17 Noroeste 41 Oeste 0 1011.7 2.7 41
2019-10-15 09:00:00 15.7 14 Sur 43 Noroeste 0 1011.1 2.3 43
2019-10-15 08:00:00 15.2 9 Sudeste 71 Noroeste 0 1010 1.6 45
2019-10-15 07:00:00 15.7 29 Oeste 64 Noroeste 0 1009 1.2 42
2019-10-15 06:00:00 15.7 10 Noroeste 35 Noroeste 0 1008.8 1.4 46
2019-10-15 05:00:00 16.8 16 Noroeste 42 Noroeste 0 1008.4 0.9 47
2019-10-15 04:00:00 17.4 12 Noroeste 37 Norte 0 1007.8 0.1 47
2019-10-15 03:00:00 17.7 12 Norte 35 Noroeste 0 1007.4 0 50
2019-10-15 02:00:00 17.2 15 Norte 36 Norte 0 1007.5 0.5 56
2019-10-15 01:00:00 18.2 13 Norte 31 Nordeste 0 1007.7 0.9 55
2019-10-15 00:00:00 19.2 14 Noroeste 34 Norte 0 1007.4 1 62
2019-10-14 23:00:00 19.6 6 Sudeste 15 Sur 0 1007 0.8 92
2019-10-14 22:00:00 20.1 12 Sur 22 Sudoeste 0 1006.8 0.9 91
2019-10-14 21:00:00 20.7 10 Sur 15 Sur 0.2 1006.4 0.5 93
2019-10-14 20:00:00 21.5 10 Sudeste 22 Sudeste 0 1006.2 0.1 90
2019-10-14 19:00:00 22.5 9 Sudeste 18 Sudeste 0 1005.9 -1.5 84
2019-10-14 18:00:00 23.4 9 Sur 17 Sur 0 1005.9 -2.5 80
2019-10-14 17:00:00 23.2 3 Sudoeste 13 Sudeste 0 1006.1 -2.4 80
2019-10-14 16:00:00 22.5 8 Sudeste 29 Sudeste 0.4 1007.4 -2 89
2019-10-14 15:00:00 23.7 10 Sudeste 23 Sudeste 0 1008.4 -0.7 79
2019-10-14 14:00:00 25.4 9 Sudeste 18 Sudeste 0 1008.5 -0.7 68
2019-10-14 13:00:00 25 10 Sudeste 24 Sudeste 0 1009.4 -0.5 71
2019-10-14 12:00:00 25.3 13 Sudeste 34 Este 0 1009.1 -0.4 70
2019-10-14 11:00:00 23.6 10 Sur 23 Sudeste 0 1009.2 -0.1 79
2019-10-14 10:00:00 21.9 9 Sur 15 Sur 0 1009.9 0.4 89
2019-10-14 09:00:00 20.9 9 Sur 16 Sudoeste 0 1009.5 -0.7 92
2019-10-14 08:00:00 20.2 8 Sur 17 Sur 0 1009.3 -0.8 94
2019-10-14 07:00:00 19.8 11 Sudoeste 17 Sudoeste 0 1009.5 -1 94
2019-10-14 06:00:00 20.1 9 Sur 14 Sur 0 1010.2 -1.1 94
2019-10-14 05:00:00 20 8 Sur 14 Sur 0 1010.1 -1.7 95
2019-10-14 04:00:00 20 8 Sur 14 Sur 0 1010.5 -1.4 93
2019-10-14 03:00:00 20.3 8 Sur 15 Sudoeste 0 1011.3 -1 93
2019-10-14 02:00:00 20.3 7 Sur 17 Sur 0 1011.8 -0.8 93
2019-10-14 01:00:00 20 5 Sudoeste 9 Sudoeste 0 1011.9 -0.5 92
2019-10-14 00:00:00 20.9 7 Sur 19 Sur 0 1012.3 0 90